Time;durP1;ratioP1;P1;durP2;ratioP2;P2;SDS_P1;SDS_P2;PMS_P1;PMS_P2;Temp;Humidity;BMP_temperature;BMP_pressure;BME280_temperature;BME280_humidity;BME280_pressure;Samples;Min_cycle;Max_cycle;Signal;HPM_P1;HPM_P2
2023/10/21 00:01:34;;;;;;;2.83;2.73;;;;;;;16.19;100.00;97234.59;4973786;28;20870;-50
2023/10/21 00:04:01;;;;;;;0.40;0.30;;;;;;;16.70;100.00;97232.97;4982997;28;20910;-51
2023/10/21 00:06:27;;;;;;;0.30;0.20;;;;;;;16.30;100.00;97229.81;4979014;28;20544;-51
2023/10/21 00:08:54;;;;;;;0.30;0.20;;;;;;;15.90;100.00;97232.16;4979815;28;20447;-50
2023/10/21 00:11:20;;;;;;;0.30;0.20;;;;;;;16.07;100.00;97246.53;4986179;28;20522;-51
2023/10/21 00:13:47;;;;;;;0.30;0.20;;;;;;;16.09;100.00;97245.38;4985945;28;20819;-51
2023/10/21 00:16:15;;;;;;;0.30;0.20;;;;;;;16.32;100.00;97248.44;4966707;28;20472;-51
2023/10/21 00:18:42;;;;;;;0.30;0.20;;;;;;;16.51;100.00;97245.56;4979299;28;20471;-50
2023/10/21 00:21:08;;;;;;;0.30;0.20;;;;;;;16.49;100.00;97244.88;4985609;28;20927;-50
2023/10/21 00:23:35;;;;;;;0.30;0.20;;;;;;;16.49;100.00;97246.72;4985617;28;20991;-51
2023/10/21 00:26:02;;;;;;;0.30;0.20;;;;;;;16.43;100.00;97250.00;4980095;28;20523;-51
2023/10/21 00:28:29;;;;;;;0.30;0.20;;;;;;;16.33;100.00;97244.75;4979352;28;20452;-51
2023/10/21 00:30:56;;;;;;;0.30;0.20;;;;;;;16.36;100.00;97244.44;4985056;28;20455;-51
2023/10/21 00:33:22;;;;;;;0.40;0.20;;;;;;;16.49;100.00;97249.41;4985674;28;20473;-51
2023/10/21 00:35:49;;;;;;;0.30;0.20;;;;;;;16.37;100.00;97240.75;4980537;28;20449;-51
2023/10/21 00:38:15;;;;;;;0.30;0.20;;;;;;;16.58;100.00;97246.63;4983141;28;20465;-51
2023/10/21 00:40:55;;;;;;;0.30;0.20;;;;;;;16.53;100.00;97248.94;4988148;28;20938;-51
2023/10/21 00:43:30;;;;;;;0.30;0.20;;;;;;;16.56;100.00;97243.25;4989408;28;20524;-51
2023/10/21 00:45:57;;;;;;;0.30;0.20;;;;;;;16.59;100.00;97247.47;4987633;28;20535;-51
2023/10/21 00:48:24;;;;;;;0.30;0.20;;;;;;;16.36;100.00;97249.81;4982937;28;20503;-50
2023/10/21 00:50:51;;;;;;;0.30;0.20;;;;;;;16.53;100.00;97256.13;4984606;28;20454;-51
2023/10/21 00:53:17;;;;;;;0.30;0.20;;;;;;;16.76;100.00;97257.34;4990084;28;20444;-51
2023/10/21 00:55:44;;;;;;;0.30;0.20;;;;;;;16.25;100.00;97248.19;4976975;28;20926;-52
2023/10/21 00:58:11;;;;;;;0.30;0.20;;;;;;;16.40;100.00;97253.00;4981012;28;20469;-51
2023/10/21 01:00:37;;;;;;;0.30;0.20;;;;;;;16.27;100.00;97256.09;4984656;28;20788;-51
2023/10/21 01:03:04;;;;;;;0.30;0.20;;;;;;;16.47;100.00;97249.56;4981194;28;20460;-51
2023/10/21 01:05:31;;;;;;;0.30;0.20;;;;;;;16.54;100.00;97257.81;4979936;28;20504;-51
2023/10/21 01:07:59;;;;;;;0.30;0.20;;;;;;;16.27;100.00;97248.88;4989149;28;20477;-50
2023/10/21 01:10:25;;;;;;;0.30;0.20;;;;;;;16.36;100.00;97249.81;4987691;28;20972;-51
2023/10/21 01:12:52;;;;;;;0.30;0.20;;;;;;;16.38;100.00;97263.06;4982498;28;20487;-51
2023/10/21 01:15:18;;;;;;;0.30;0.20;;;;;;;16.39;100.00;97264.72;4983543;28;20435;-51
2023/10/21 01:17:49;;;;;;;0.30;0.20;;;;;;;16.36;100.00;97267.72;4989047;28;20513;-51
2023/10/21 01:20:17;;;;;;;0.30;0.20;;;;;;;16.34;100.00;97264.38;4989037;28;20449;-51
2023/10/21 01:22:43;;;;;;;0.30;0.20;;;;;;;16.41;100.00;97268.09;4982113;28;20454;-50
2023/10/21 01:25:11;;;;;;;0.30;0.20;;;;;;;16.46;100.00;97263.13;4982480;28;20469;-51
2023/10/21 01:27:37;;;;;;;0.30;0.20;;;;;;;16.21;100.00;97284.34;4982469;28;20500;-52
2023/10/21 01:30:07;;;;;;;0.30;0.20;;;;;;;16.29;100.00;97271.00;4982012;28;20429;-51
2023/10/21 01:32:33;;;;;;;0.30;0.20;;;;;;;16.39;100.00;97267.41;4987792;28;20835;-51
2023/10/21 01:35:00;;;;;;;0.30;0.20;;;;;;;16.26;100.00;97275.84;4971568;28;20500;-51
2023/10/21 01:37:26;;;;;;;0.30;0.20;;;;;;;16.41;100.00;97286.88;4983111;28;20463;-51
2023/10/21 01:39:53;;;;;;;0.30;0.20;;;;;;;16.50;100.00;97299.34;4981888;28;20501;-51
2023/10/21 01:42:19;;;;;;;0.30;0.20;;;;;;;16.46;100.00;97295.31;4987379;28;20482;-50
2023/10/21 01:44:46;;;;;;;0.30;0.20;;;;;;;16.44;100.00;97310.69;4988533;28;20458;-50
2023/10/21 01:47:12;;;;;;;0.30;0.20;;;;;;;16.47;100.00;97307.72;4982814;28;20882;-52
2023/10/21 01:49:39;;;;;;;0.30;0.20;;;;;;;16.59;100.00;97309.16;4981704;28;20473;-51
2023/10/21 01:52:05;;;;;;;0.30;0.20;;;;;;;16.53;100.00;97309.75;4987352;28;20594;-51
2023/10/21 01:54:32;;;;;;;0.30;0.20;;;;;;;16.53;100.00;97331.22;4988066;28;20449;-50
2023/10/21 01:56:58;;;;;;;0.30;0.20;;;;;;;16.62;100.00;97334.81;4975159;28;20949;-51
2023/10/21 01:59:24;;;;;;;0.30;0.20;;;;;;;16.56;100.00;97334.44;4988399;28;21060;-52
2023/10/21 02:01:51;;;;;;;0.30;0.20;;;;;;;16.59;100.00;97347.56;4975474;28;20456;-51
2023/10/21 02:04:17;;;;;;;0.30;0.20;;;;;;;16.50;100.00;97356.50;4984059;28;20801;-51
2023/10/21 02:06:44;;;;;;;0.30;0.20;;;;;;;16.49;100.00;97365.56;4983407;28;20471;-51
2023/10/21 02:09:10;;;;;;;0.30;0.20;;;;;;;16.48;100.00;97366.53;4981435;28;20429;-51
2023/10/21 02:11:37;;;;;;;0.30;0.20;;;;;;;16.52;100.00;97377.81;4985890;28;20432;-51
2023/10/21 02:14:03;;;;;;;0.30;0.20;;;;;;;16.43;100.00;97376.03;4987896;28;20516;-51
2023/10/21 02:16:30;;;;;;;0.30;0.20;;;;;;;16.42;100.00;97383.22;4983933;28;20511;-51
2023/10/21 02:18:56;;;;;;;0.30;0.20;;;;;;;16.41;100.00;97392.25;4981152;28;20461;-51
2023/10/21 02:21:22;;;;;;;0.30;0.20;;;;;;;16.43;100.00;97401.00;4985293;28;20882;-50
2023/10/21 02:23:49;;;;;;;0.30;0.20;;;;;;;16.42;100.00;97409.19;4987787;28;20453;-51
2023/10/21 02:26:15;;;;;;;0.30;0.20;;;;;;;16.36;100.00;97417.84;4983578;28;20519;-49
2023/10/21 02:28:42;;;;;;;0.30;0.20;;;;;;;16.25;100.00;97440.34;4981006;28;20425;-50
2023/10/21 02:31:09;;;;;;;0.30;0.20;;;;;;;16.40;100.00;97459.44;4985412;28;20990;-51
2023/10/21 02:33:35;;;;;;;0.30;0.20;;;;;;;16.35;100.00;97475.16;4987629;28;20456;-51
2023/10/21 02:36:02;;;;;;;0.30;0.20;;;;;;;16.35;100.00;97480.50;4983252;28;20462;-50
2023/10/21 02:38:29;;;;;;;0.30;0.20;;;;;;;16.43;100.00;97494.00;4980617;28;20497;-50
2023/10/21 02:40:55;;;;;;;0.30;0.20;;;;;;;16.57;100.00;97510.44;4985508;28;20597;-50
2023/10/21 02:43:22;;;;;;;0.30;0.20;;;;;;;16.50;100.00;97529.97;4987226;28;20510;-51
2023/10/21 02:45:49;;;;;;;0.30;0.20;;;;;;;16.50;100.00;97546.06;4983307;28;20449;-51
2023/10/21 02:48:15;;;;;;;0.30;0.20;;;;;;;16.56;100.00;97561.53;4980605;28;20461;-51
2023/10/21 02:50:42;;;;;;;0.30;0.20;;;;;;;16.57;100.00;97569.44;4984515;28;20429;-51
2023/10/21 02:53:08;;;;;;;0.30;0.20;;;;;;;16.51;100.00;97585.28;4987218;28;20474;-50
2023/10/21 02:55:36;;;;;;;0.30;0.20;;;;;;;16.53;100.00;97592.19;4974127;28;20451;-51
2023/10/21 02:58:04;;;;;;;0.30;0.20;;;;;;;16.64;100.00;97591.16;4977735;28;20507;-51
2023/10/21 03:00:31;;;;;;;0.30;0.20;;;;;;;16.51;100.00;97606.75;4983005;28;20486;-51
2023/10/21 03:02:57;;;;;;;0.30;0.20;;;;;;;16.58;100.00;97600.66;4977838;28;20569;-51
2023/10/21 03:05:24;;;;;;;0.30;0.20;;;;;;;16.52;100.00;97613.78;4978699;28;20429;-51
2023/10/21 03:07:50;;;;;;;0.30;0.20;;;;;;;16.54;100.00;97618.00;4986744;28;20461;-51
2023/10/21 03:10:17;;;;;;;0.30;0.20;;;;;;;16.49;100.00;97628.34;4984731;28;20503;-51
2023/10/21 03:12:44;;;;;;;0.30;0.20;;;;;;;16.59;99.76;97639.03;4980439;28;20552;-50
2023/10/21 03:15:11;;;;;;;0.30;0.20;;;;;;;16.50;100.00;97642.59;4982943;28;20451;-51
2023/10/21 03:17:37;;;;;;;0.30;0.20;;;;;;;16.71;99.51;97645.91;4986860;28;20421;-50
2023/10/21 03:20:06;;;;;;;0.30;0.20;;;;;;;16.71;99.73;97662.00;4984683;28;20492;-51
2023/10/21 03:22:32;;;;;;;0.30;0.20;;;;;;;16.60;99.91;97672.91;4979969;28;20444;-51
2023/10/21 03:24:59;;;;;;;0.30;0.20;;;;;;;16.55;100.00;97672.50;4982273;28;20533;-51
2023/10/21 03:27:25;;;;;;;0.30;0.20;;;;;;;16.64;100.00;97679.66;4978533;28;20430;-50
2023/10/21 03:29:52;;;;;;;0.30;0.20;;;;;;;16.68;100.00;97691.81;4964521;28;20441;-51
2023/10/21 03:32:18;;;;;;;0.30;0.20;;;;;;;16.59;100.00;97695.38;4969285;28;20486;-51
2023/10/21 03:34:44;;;;;;;0.30;0.20;;;;;;;16.58;100.00;97704.38;4970481;28;20935;-51
2023/10/21 03:37:11;;;;;;;0.30;0.20;;;;;;;16.65;100.00;97707.34;4976898;28;20548;-51
2023/10/21 03:39:37;;;;;;;0.40;0.20;;;;;;;16.70;100.00;97719.34;4981395;28;20498;-51
2023/10/21 03:42:06;;;;;;;0.30;0.20;;;;;;;16.75;100.00;97722.44;4986027;28;21024;-51
2023/10/21 03:44:33;;;;;;;0.30;0.20;;;;;;;16.79;100.00;97729.22;4985645;28;20433;-51
2023/10/21 03:46:59;;;;;;;0.30;0.20;;;;;;;16.78;100.00;97727.53;4979596;28;20513;-51
2023/10/21 03:49:26;;;;;;;0.30;0.20;;;;;;;16.75;100.00;97735.03;4980628;28;20461;-51
2023/10/21 03:51:52;;;;;;;0.30;0.20;;;;;;;16.72;100.00;97748.69;4986369;28;20562;-51
2023/10/21 03:54:19;;;;;;;0.30;0.20;;;;;;;16.64;100.00;97753.94;4985657;28;20454;-51
2023/10/21 03:56:45;;;;;;;0.30;0.20;;;;;;;16.66;100.00;97768.03;4974049;28;20456;-51
2023/10/21 03:59:12;;;;;;;0.30;0.20;;;;;;;16.72;100.00;97764.81;4985944;28;20518;-52
2023/10/21 04:01:39;;;;;;;0.30;0.20;;;;;;;16.83;100.00;97772.69;4973853;28;20807;-52
2023/10/21 04:04:06;;;;;;;0.30;0.20;;;;;;;16.72;100.00;97775.53;4981912;28;20515;-52
2023/10/21 04:06:33;;;;;;;0.30;0.20;;;;;;;16.64;100.00;97784.28;4967250;28;20462;-52
2023/10/21 04:09:00;;;;;;;0.30;0.20;;;;;;;16.62;100.00;97790.78;4979586;28;20923;-50
2023/10/21 04:11:27;;;;;;;0.30;0.20;;;;;;;16.80;100.00;97794.44;4970281;28;20818;-52
2023/10/21 04:13:53;;;;;;;0.30;0.20;;;;;;;16.58;100.00;97795.56;4983366;28;20828;-51
2023/10/21 04:16:19;;;;;;;0.30;0.20;;;;;;;16.61;100.00;97799.81;4989753;28;20509;-52
2023/10/21 04:18:46;;;;;;;0.30;0.20;;;;;;;16.70;100.00;97812.38;4989755;28;20468;-52
2023/10/21 04:21:12;;;;;;;0.30;0.20;;;;;;;16.67;100.00;97815.34;4983523;28;20908;-52
2023/10/21 04:23:39;;;;;;;0.30;0.20;;;;;;;16.74;100.00;97816.50;4983257;28;20469;-51
2023/10/21 04:26:05;;;;;;;0.30;0.20;;;;;;;16.65;100.00;97823.53;4989390;28;20788;-52
2023/10/21 04:28:32;;;;;;;0.30;0.20;;;;;;;16.63;100.00;97820.16;4989777;28;20876;-51
2023/10/21 04:30:58;;;;;;;0.30;0.20;;;;;;;16.64;100.00;97827.19;4983741;28;20460;-52
2023/10/21 04:33:25;;;;;;;0.30;0.20;;;;;;;16.51;100.00;97832.00;4983075;28;20842;-52
2023/10/21 04:35:52;;;;;;;0.30;0.20;;;;;;;16.63;100.00;97833.56;4971008;28;20454;-51
2023/10/21 04:38:19;;;;;;;0.30;0.20;;;;;;;16.70;100.00;97842.75;4989763;28;20427;-52
2023/10/21 04:40:45;;;;;;;0.30;0.20;;;;;;;16.72;100.00;97848.84;4984241;28;20464;-52
2023/10/21 04:43:12;;;;;;;0.30;0.20;;;;;;;16.69;100.00;97854.47;4982573;28;20541;-52
2023/10/21 04:45:38;;;;;;;0.30;0.20;;;;;;;16.75;100.00;97856.59;4988649;28;20425;-52
2023/10/21 04:48:05;;;;;;;0.30;0.20;;;;;;;16.82;99.90;97863.06;4989362;28;20457;-51
2023/10/21 04:50:32;;;;;;;0.30;0.20;;;;;;;16.86;99.71;97864.50;4984385;28;20507;-52
2023/10/21 04:52:59;;;;;;;0.30;0.20;;;;;;;16.81;99.77;97863.22;4982866;28;20456;-52
2023/10/21 04:55:26;;;;;;;0.30;0.20;;;;;;;16.86;99.50;97869.03;4987104;28;20433;-51
2023/10/21 04:57:52;;;;;;;0.30;0.20;;;;;;;16.73;99.63;97879.19;4978746;28;20429;-51
2023/10/21 05:00:19;;;;;;;0.30;0.20;;;;;;;16.56;100.00;97884.22;4987265;28;20563;-51
2023/10/21 05:02:45;;;;;;;0.30;0.20;;;;;;;16.67;100.00;97896.69;4979091;28;21068;-51
2023/10/21 05:05:12;;;;;;;0.30;0.20;;;;;;;16.65;100.00;97903.16;4982765;28;20840;-51
2023/10/21 05:07:39;;;;;;;0.30;0.20;;;;;;;16.57;100.00;97902.00;4989157;28;20481;-52
2023/10/21 05:10:06;;;;;;;0.30;0.20;;;;;;;16.60;100.00;97911.63;4985351;28;20580;-51
2023/10/21 05:12:32;;;;;;;0.30;0.20;;;;;;;16.61;99.92;97918.69;4982498;28;20480;-52
2023/10/21 05:14:59;;;;;;;0.30;0.20;;;;;;;16.68;99.48;97927.03;4985949;28;20519;-52
2023/10/21 05:17:25;;;;;;;0.30;0.20;;;;;;;16.55;99.87;97920.06;4989535;28;20515;-51
2023/10/21 05:19:52;;;;;;;0.30;0.20;;;;;;;16.54;99.52;97928.28;4968300;28;20464;-52
2023/10/21 05:22:19;;;;;;;0.30;0.20;;;;;;;16.62;98.65;97924.91;4981594;28;20470;-51
2023/10/21 05:24:45;;;;;;;0.30;0.20;;;;;;;16.58;98.85;97930.56;4985810;28;20460;-52
2023/10/21 05:27:12;;;;;;;0.30;0.20;;;;;;;16.58;97.96;97935.91;4988954;28;20547;-50
2023/10/21 05:29:38;;;;;;;0.30;0.20;;;;;;;16.48;98.38;97942.25;4985688;28;20456;-52
2023/10/21 05:32:05;;;;;;;0.30;0.20;;;;;;;16.53;97.90;97948.03;4982429;28;20501;-51
2023/10/21 05:34:31;;;;;;;0.30;0.20;;;;;;;16.63;97.55;97950.75;4985652;28;20483;-50
2023/10/21 05:36:58;;;;;;;0.30;0.20;;;;;;;16.49;97.74;97949.31;4988849;28;20454;-51
2023/10/21 05:39:24;;;;;;;0.30;0.20;;;;;;;16.58;97.74;97954.69;4985477;28;20535;-51
2023/10/21 05:41:51;;;;;;;0.30;0.20;;;;;;;16.59;96.61;97953.72;4981678;28;20520;-51
2023/10/21 05:44:18;;;;;;;0.30;0.20;;;;;;;16.34;97.29;97972.13;4985021;28;20879;-51
2023/10/21 05:46:52;;;;;;;0.30;0.20;;;;;;;16.25;97.39;97989.88;4988606;28;20424;-51
2023/10/21 05:49:19;;;;;;;0.30;0.20;;;;;;;16.37;97.66;97993.31;4986681;28;20519;-51
2023/10/21 05:51:45;;;;;;;0.30;0.20;;;;;;;16.48;97.42;97988.69;4981723;28;20825;-51
2023/10/21 05:54:12;;;;;;;0.30;0.20;;;;;;;16.41;97.42;98006.28;4983365;28;20519;-52
2023/10/21 05:56:38;;;;;;;0.30;0.20;;;;;;;16.40;97.91;98015.31;4974990;28;20513;-52
2023/10/21 05:59:05;;;;;;;0.30;0.20;;;;;;;16.51;97.71;98012.53;4987417;28;20512;-52
2023/10/21 06:01:31;;;;;;;0.30;0.20;;;;;;;16.43;96.88;98017.72;4976318;28;20535;-51
2023/10/21 06:03:57;;;;;;;0.30;0.20;;;;;;;16.65;96.93;98034.59;4985253;28;20450;-52
2023/10/21 06:06:24;;;;;;;0.30;0.20;;;;;;;16.50;97.04;98045.72;4987197;28;20501;-50
2023/10/21 06:08:51;;;;;;;0.30;0.20;;;;;;;16.61;97.08;98055.50;4987344;28;20551;-52
2023/10/21 06:11:17;;;;;;;0.30;0.20;;;;;;;16.53;96.41;98061.53;4981121;28;20436;-51
2023/10/21 06:13:44;;;;;;;0.30;0.20;;;;;;;16.62;95.95;98065.25;4982667;28;20474;-51
2023/10/21 06:16:10;;;;;;;0.30;0.20;;;;;;;16.57;96.43;98070.13;4988727;28;20520;-52
2023/10/21 06:18:36;;;;;;;0.30;0.20;;;;;;;16.62;95.51;98077.81;4987305;28;20871;-52
2023/10/21 06:21:04;;;;;;;0.30;0.20;;;;;;;16.53;95.35;98087.50;4980912;28;20559;-52
2023/10/21 06:23:31;;;;;;;0.30;0.20;;;;;;;16.50;95.42;98090.47;4982212;28;20479;-51
2023/10/21 06:25:57;;;;;;;0.30;0.20;;;;;;;16.46;95.25;98094.41;4987776;28;20497;-51
2023/10/21 06:28:24;;;;;;;0.30;0.20;;;;;;;16.56;94.87;98108.69;4987136;28;20797;-52
2023/10/21 06:30:50;;;;;;;0.30;0.20;;;;;;;16.45;94.77;98116.84;4981010;28;20541;-52
2023/10/21 06:33:17;;;;;;;0.30;0.20;;;;;;;16.49;93.83;98129.00;4993296;28;21038;-52
2023/10/21 06:35:44;;;;;;;0.30;0.20;;;;;;;16.41;94.64;98134.16;4980492;28;20461;-52
2023/10/21 06:38:10;;;;;;;0.33;0.20;;;;;;;16.30;94.50;98135.94;4980962;28;20525;-52
2023/10/21 06:40:37;;;;;;;0.30;0.20;;;;;;;16.14;94.19;98146.28;4987102;28;20471;-52
2023/10/21 06:43:06;;;;;;;0.30;0.20;;;;;;;16.33;94.54;98142.03;4987354;28;20482;-52
2023/10/21 06:45:33;;;;;;;0.30;0.20;;;;;;;16.33;94.64;98147.41;4981672;28;20536;-52
2023/10/21 06:48:01;;;;;;;0.30;0.20;;;;;;;16.26;95.11;98149.75;4980572;28;20490;-52
2023/10/21 06:50:29;;;;;;;0.30;0.20;;;;;;;16.34;95.18;98162.50;4985829;28;20424;-52
2023/10/21 06:52:56;;;;;;;0.30;0.20;;;;;;;16.34;93.73;98171.41;4986841;28;20875;-53
2023/10/21 06:55:29;;;;;;;0.30;0.20;;;;;;;16.31;93.50;98174.34;5089829;28;20538;-51
2023/10/21 06:57:55;;;;;;;0.30;0.20;;;;;;;16.40;91.15;98184.25;5073471;28;20549;-51
2023/10/21 07:00:21;;;;;;;0.30;0.20;;;;;;;16.28;91.28;98191.53;5069766;28;20435;-52
2023/10/21 07:02:48;;;;;;;0.30;0.20;;;;;;;16.46;91.63;98209.72;5069303;28;20449;-52
2023/10/21 07:05:15;;;;;;;0.30;0.20;;;;;;;16.69;90.18;98215.78;5067569;28;20476;-56
2023/10/21 07:07:42;;;;;;;0.30;0.20;;;;;;;16.56;90.05;98218.66;5069496;28;20473;-51
2023/10/21 07:10:09;;;;;;;0.30;0.20;;;;;;;16.81;89.98;98222.78;5069483;28;20511;-53
2023/10/21 07:12:38;;;;;;;0.30;0.20;;;;;;;16.82;90.33;98221.78;5069221;28;20451;-52
2023/10/21 07:15:05;;;;;;;0.30;0.20;;;;;;;16.74;89.53;98240.41;5069240;28;20921;-52
2023/10/21 07:17:32;;;;;;;0.30;0.20;;;;;;;16.93;89.04;98235.13;5069091;28;20427;-52
2023/10/21 07:19:59;;;;;;;0.30;0.20;;;;;;;16.52;88.85;98230.63;5069019;28;20446;-50
2023/10/21 07:22:26;;;;;;;0.30;0.20;;;;;;;16.58;88.55;98246.19;5069013;28;20535;-52
2023/10/21 07:24:56;;;;;;;0.30;0.20;;;;;;;16.49;89.02;98238.97;5068872;28;20464;-51
2023/10/21 07:27:24;;;;;;;0.30;0.20;;;;;;;16.63;87.59;98253.88;5068892;28;20451;-52
2023/10/21 07:29:50;;;;;;;0.30;0.20;;;;;;;16.64;88.26;98268.97;5068936;28;20432;-52
2023/10/21 07:32:17;;;;;;;0.30;0.20;;;;;;;16.69;87.87;98275.66;5068567;28;20495;-51
2023/10/21 07:34:43;;;;;;;0.30;0.20;;;;;;;16.67;87.19;98279.44;5068758;28;20417;-51
2023/10/21 07:37:10;;;;;;;0.30;0.20;;;;;;;16.58;86.45;98276.56;5069198;28;20504;-52
2023/10/21 07:39:36;;;;;;;0.30;0.20;;;;;;;16.76;86.09;98273.31;5068565;28;20815;-52
2023/10/21 07:42:03;;;;;;;0.30;0.20;;;;;;;16.88;85.35;98274.94;5068622;28;20837;-53
2023/10/21 07:44:30;;;;;;;0.30;0.20;;;;;;;16.62;86.40;98274.47;5068479;28;20918;-52
2023/10/21 07:46:56;;;;;;;0.30;0.20;;;;;;;16.67;86.41;98272.28;5055213;28;20446;-52
2023/10/21 07:49:24;;;;;;;0.30;0.20;;;;;;;16.84;86.44;98268.13;5068482;28;21009;-53
2023/10/21 07:51:50;;;;;;;0.30;0.20;;;;;;;16.81;86.13;98279.97;5068652;28;20556;-51
2023/10/21 07:54:17;;;;;;;0.30;0.20;;;;;;;16.76;86.10;98279.53;5070734;28;20895;-52
2023/10/21 07:56:47;;;;;;;0.30;0.20;;;;;;;16.94;86.17;98295.88;5068219;28;20528;-52
2023/10/21 07:59:16;;;;;;;0.30;0.20;;;;;;;17.25;85.96;98299.41;5068225;28;20796;-51
2023/10/21 08:01:42;;;;;;;0.30;0.20;;;;;;;17.17;86.10;98310.84;5061179;28;20506;-52
2023/10/21 08:04:09;;;;;;;0.30;0.20;;;;;;;17.38;85.26;98321.50;5062437;28;20547;-52
2023/10/21 08:06:35;;;;;;;0.30;0.20;;;;;;;17.52;84.90;98322.97;5056520;28;20431;-52
2023/10/21 08:09:04;;;;;;;0.30;0.20;;;;;;;17.25;85.36;98320.88;5054878;28;20429;-52
2023/10/21 08:11:31;;;;;;;0.30;0.20;;;;;;;17.26;84.88;98330.66;5054751;28;20425;-52
2023/10/21 08:13:58;;;;;;;0.30;0.20;;;;;;;17.22;84.73;98331.06;5054779;28;20425;-52
2023/10/21 08:16:24;;;;;;;0.30;0.20;;;;;;;17.16;84.80;98352.09;5054981;28;20443;-52
2023/10/21 08:18:51;;;;;;;0.30;0.20;;;;;;;17.27;83.58;98345.81;5051772;28;20425;-52
2023/10/21 08:21:18;;;;;;;0.30;0.20;;;;;;;17.51;82.76;98348.16;5052029;28;20475;-53
2023/10/21 08:23:44;;;;;;;0.30;0.20;;;;;;;17.40;83.37;98357.16;5054253;28;20995;-52
2023/10/21 08:26:11;;;;;;;0.40;0.20;;;;;;;17.28;83.20;98354.72;5054450;28;20523;-51
2023/10/21 08:28:37;;;;;;;0.30;0.20;;;;;;;17.40;83.25;98370.56;5051627;28;20958;-51
2023/10/21 08:31:04;;;;;;;0.30;0.20;;;;;;;17.46;82.32;98378.13;5055448;28;20444;-52
2023/10/21 08:33:30;;;;;;;0.30;0.20;;;;;;;17.32;83.30;98369.56;5055448;28;20474;-52
2023/10/21 08:35:57;;;;;;;0.30;0.20;;;;;;;17.52;82.39;98374.03;5046879;28;20432;-52
2023/10/21 08:38:23;;;;;;;0.30;0.20;;;;;;;17.49;83.16;98382.38;5054316;28;20426;-52
2023/10/21 08:40:50;;;;;;;0.30;0.20;;;;;;;17.72;82.00;98386.59;5054250;28;20885;-52
2023/10/21 08:43:17;;;;;;;0.30;0.20;;;;;;;17.29;82.08;98389.47;5053986;28;20473;-53
2023/10/21 08:45:44;;;;;;;0.30;0.20;;;;;;;17.21;81.67;98397.34;5054125;28;20478;-53
2023/10/21 08:48:15;;;;;;;0.30;0.20;;;;;;;17.51;81.65;98401.03;5050914;28;20434;-51
2023/10/21 08:50:43;;;;;;;0.30;0.20;;;;;;;17.59;82.10;98396.69;5052717;28;20561;-51
2023/10/21 08:53:11;;;;;;;0.30;0.20;;;;;;;17.57;81.50;98406.72;5053788;28;20477;-50
2023/10/21 08:55:38;;;;;;;0.40;0.20;;;;;;;17.36;81.54;98413.97;5057352;28;20422;-51
2023/10/21 08:58:08;;;;;;;0.40;0.20;;;;;;;17.34;81.43;98416.78;5053862;28;20451;-51
2023/10/21 09:00:35;;;;;;;0.30;0.20;;;;;;;17.35;81.52;98429.22;5054036;28;20432;-51
2023/10/21 09:03:03;;;;;;;0.40;0.20;;;;;;;17.41;80.86;98420.66;5053528;28;20467;-49
2023/10/21 09:05:30;;;;;;;0.33;0.20;;;;;;;17.21;80.07;98431.41;5053593;28;20842;-51
2023/10/21 09:07:56;;;;;;;0.40;0.20;;;;;;;17.43;80.85;98437.50;5053514;28;20481;-51
2023/10/21 09:10:23;;;;;;;0.30;0.20;;;;;;;17.70;78.92;98433.41;5053443;28;20524;-51
2023/10/21 09:12:49;;;;;;;0.40;0.20;;;;;;;17.88;79.55;98439.00;5053616;28;21033;-51
2023/10/21 09:15:15;;;;;;;0.30;0.20;;;;;;;17.88;77.78;98442.53;5053766;28;20447;-51
2023/10/21 09:17:46;;;;;;;0.40;0.20;;;;;;;17.77;79.18;98438.09;5052511;28;20433;-51
2023/10/21 09:20:17;;;;;;;0.40;0.20;;;;;;;17.65;78.30;98443.66;5053780;28;20447;-51
2023/10/21 09:22:46;;;;;;;0.40;0.20;;;;;;;17.89;79.08;98457.69;5044388;28;20482;-52
2023/10/21 09:25:15;;;;;;;0.30;0.20;;;;;;;17.88;79.25;98453.28;5053615;28;20549;-50
2023/10/21 09:27:43;;;;;;;0.40;0.20;;;;;;;17.74;79.68;98459.03;5053415;28;20468;-51
2023/10/21 09:30:15;;;;;;;0.40;0.20;;;;;;;17.82;79.82;98459.22;5053329;28;20447;-51
2023/10/21 09:32:42;;;;;;;0.40;0.20;;;;;;;18.11;79.66;98458.47;5053163;28;20474;-51
2023/10/21 09:35:24;;;;;;;0.40;0.20;;;;;;;18.06;80.66;98459.72;5052937;28;20443;-51
2023/10/21 09:37:51;;;;;;;0.40;0.20;;;;;;;18.40;78.74;98458.56;5052940;28;21106;-51
2023/10/21 09:40:19;;;;;;;0.40;0.20;;;;;;;18.04;78.87;98458.16;5053287;28;20457;-52
2023/10/21 09:42:49;;;;;;;0.40;0.20;;;;;;;18.36;79.22;98463.34;5053208;28;20553;-51
2023/10/21 09:45:16;;;;;;;0.40;0.20;;;;;;;18.06;79.32;98457.03;5052783;28;20489;-50
2023/10/21 09:47:43;;;;;;;0.40;0.20;;;;;;;18.49;77.76;98465.78;5052504;28;20912;-51
2023/10/21 09:50:12;;;;;;;0.40;0.20;;;;;;;18.59;76.07;98462.13;5052613;28;20453;-51
2023/10/21 09:53:14;;;;;;;0.40;0.20;;;;;;;18.51;75.49;98474.59;5052666;28;20561;-52
2023/10/21 09:55:41;;;;;;;0.40;0.20;;;;;;;18.75;75.84;98476.91;5054234;28;20467;-52
2023/10/21 09:58:08;;;;;;;0.40;0.20;;;;;;;18.93;76.17;98480.63;5053358;28;20534;-50
2023/10/21 10:00:35;;;;;;;0.40;0.20;;;;;;;18.83;74.56;98485.16;5052462;28;20943;-51
2023/10/21 10:03:05;;;;;;;0.40;0.20;;;;;;;18.94;75.42;98485.88;5050676;28;20582;-50
2023/10/21 10:05:32;;;;;;;0.40;0.20;;;;;;;19.05;76.14;98497.47;5050386;28;20487;-50
2023/10/21 10:07:59;;;;;;;0.40;0.20;;;;;;;18.65;76.83;98501.16;5052646;28;20958;-49
2023/10/21 10:10:27;;;;;;;0.40;0.20;;;;;;;18.46;77.07;98501.06;5052321;28;20478;-49
2023/10/21 10:13:03;;;;;;;0.40;0.20;;;;;;;18.22;78.08;98501.38;5052337;28;20493;-49
2023/10/21 10:15:38;;;;;;;0.40;0.20;;;;;;;18.66;77.93;98508.22;5052576;28;20534;-49
2023/10/21 10:18:10;;;;;;;0.40;0.20;;;;;;;18.71;77.06;98503.28;5052413;28;20450;-50
2023/10/21 10:20:48;;;;;;;0.40;0.20;;;;;;;18.79;76.99;98506.13;5052458;28;20490;-49
2023/10/21 10:23:15;;;;;;;0.40;0.20;;;;;;;18.77;76.45;98509.91;5050534;28;20481;-49
2023/10/21 10:25:49;;;;;;;0.40;0.20;;;;;;;18.85;76.43;98520.84;5052457;28;20576;-50
2023/10/21 10:28:20;;;;;;;0.40;0.20;;;;;;;18.89;75.94;98514.19;5052112;28;20545;-50
2023/10/21 10:30:52;;;;;;;0.40;0.20;;;;;;;19.05;75.22;98514.50;5052189;28;20546;-50
2023/10/21 10:33:23;;;;;;;0.40;0.20;;;;;;;18.80;75.77;98513.22;5052156;28;20482;-50
2023/10/21 10:35:51;;;;;;;0.40;0.20;;;;;;;18.76;76.18;98527.06;5048757;28;20443;-50
2023/10/21 10:38:27;;;;;;;0.40;0.20;;;;;;;18.80;74.40;98512.34;5052141;28;20506;-49
2023/10/21 10:41:11;;;;;;;0.40;0.20;;;;;;;18.91;74.07;98496.06;5051555;28;20837;-51
2023/10/21 10:43:41;;;;;;;0.40;0.20;;;;;;;18.78;74.45;98496.34;5052335;28;20542;-50
2023/10/21 10:46:08;;;;;;;0.40;0.20;;;;;;;18.88;74.73;98496.34;5051869;28;20571;-50
2023/10/21 10:48:35;;;;;;;0.40;0.20;;;;;;;18.77;76.72;98494.63;5052016;28;20504;-50
2023/10/21 10:51:15;;;;;;;0.40;0.20;;;;;;;18.67;78.21;98493.78;5052022;28;20513;-48
2023/10/21 10:53:54;;;;;;;0.40;0.20;;;;;;;18.70;78.12;98498.03;5040371;28;20574;-49
2023/10/21 10:56:21;;;;;;;0.40;0.20;;;;;;;18.63;77.98;98503.94;5049233;28;20435;-49
2023/10/21 10:58:48;;;;;;;0.40;0.20;;;;;;;18.63;78.19;98508.44;5052004;28;20455;-48
2023/10/21 11:01:25;;;;;;;0.40;0.20;;;;;;;18.76;76.72;98505.53;5051851;28;20425;-49
2023/10/21 11:03:56;;;;;;;0.40;0.20;;;;;;;18.50;76.43;98514.13;5051871;28;20429;-49
2023/10/21 11:06:23;;;;;;;0.40;0.20;;;;;;;19.02;75.97;98514.78;5051647;28;20486;-49
2023/10/21 11:08:51;;;;;;;0.40;0.20;;;;;;;19.18;75.25;98514.22;5051404;28;20454;-48
2023/10/21 11:11:18;;;;;;;0.40;0.20;;;;;;;19.57;73.61;98514.22;5051667;28;20517;-49
2023/10/21 11:13:46;;;;;;;0.40;0.20;;;;;;;19.73;72.97;98519.84;5051803;28;20846;-49
2023/10/21 11:16:12;;;;;;;0.77;0.77;;;;;;;19.66;70.23;98516.91;5038218;28;20933;-49
2023/10/21 11:18:39;;;;;;;0.40;0.20;;;;;;;19.91;69.92;98526.22;5051542;28;20455;-49
2023/10/21 11:21:05;;;;;;;0.40;0.20;;;;;;;19.42;69.77;98519.16;5051641;28;20497;-49
2023/10/21 11:23:32;;;;;;;0.40;0.20;;;;;;;19.51;69.19;98529.94;5051201;28;20856;-49
2023/10/21 11:26:00;;;;;;;0.40;0.20;;;;;;;19.69;68.98;98511.22;5051269;28;20489;-49
2023/10/21 11:28:27;;;;;;;0.40;0.20;;;;;;;19.58;67.87;98514.06;5051821;28;20450;-49
2023/10/21 11:30:55;;;;;;;0.40;0.20;;;;;;;20.00;67.88;98505.59;5051608;28;20465;-49